Time;durP1;ratioP1;P1;durP2;ratioP2;P2;SDS_P1;SDS_P2;PMS_P1;PMS_P2;Temp;Humidity;BMP_temperature;BMP_pressure;BME280_temperature;BME280_humidity;BME280_pressure;Samples;Min_cycle;Max_cycle;Signal;HPM_P1;HPM_P2
2023/04/23 00:00:09;;;;;;;6.10;4.18;;;20.70;62.10;;;;;;5015675;28;20040;-51
2023/04/23 00:02:37;;;;;;;8.50;4.95;;;20.70;62.10;;;;;;5017202;28;20025;-57
2023/04/23 00:05:07;;;;;;;6.25;4.38;;;20.80;62.20;;;;;;5016829;28;20022;-57
2023/04/23 00:07:33;;;;;;;5.20;4.20;;;20.70;62.10;;;;;;5018384;28;20026;-52
2023/04/23 00:10:00;;;;;;;5.93;4.53;;;20.70;62.10;;;;;;5014823;28;20399;-56
2023/04/23 00:12:27;;;;;;;6.60;4.45;;;20.70;62.10;;;;;;5013725;28;20064;-53
2023/04/23 00:14:53;;;;;;;7.13;4.35;;;20.70;62.10;;;;;;5016746;28;20033;-57
2023/04/23 00:17:19;;;;;;;7.38;4.20;;;20.70;62.10;;;;;;5017175;28;20372;-50
2023/04/23 00:19:46;;;;;;;7.95;3.97;;;20.70;62.00;;;;;;5010851;28;20033;-56
2023/04/23 00:22:12;;;;;;;5.28;4.10;;;20.70;62.00;;;;;;5014476;28;20037;-55
2023/04/23 00:24:41;;;;;;;6.75;4.55;;;20.70;62.10;;;;;;5017237;28;20034;-54
2023/04/23 00:27:06;;;;;;;6.00;4.10;;;20.70;62.00;;;;;;5016606;28;20095;-50
2023/04/23 00:29:32;;;;;;;5.60;4.13;;;20.70;62.00;;;;;;5015350;28;20026;-52
2023/04/23 00:31:57;;;;;;;7.28;4.05;;;20.80;62.10;;;;;;5017207;28;20036;-58
2023/04/23 00:34:23;;;;;;;5.47;4.30;;;20.70;61.90;;;;;;5019900;28;20071;-50
2023/04/23 00:36:48;;;;;;;4.13;3.42;;;20.70;61.90;;;;;;5016736;28;20038;-54
2023/04/23 00:39:14;;;;;;;5.63;4.05;;;20.70;62.00;;;;;;5012084;28;20022;-53
2023/04/23 00:41:41;;;;;;;4.18;3.78;;;20.70;61.90;;;;;;5014522;28;20037;-59
2023/04/23 00:44:07;;;;;;;4.88;3.90;;;20.70;61.90;;;;;;5016211;28;20523;-51
2023/04/23 00:46:34;;;;;;;4.40;3.65;;;20.70;61.90;;;;;;5015243;28;20180;-50
2023/04/23 00:49:00;;;;;;;5.28;3.40;;;20.70;61.90;;;;;;5012253;28;20034;-52
2023/04/23 00:51:27;;;;;;;7.15;4.15;;;20.70;61.90;;;;;;5017480;28;20040;-51
2023/04/23 00:53:54;;;;;;;5.47;3.70;;;20.70;61.90;;;;;;5016606;28;20025;-51
2023/04/23 00:56:20;;;;;;;4.90;3.80;;;20.70;61.90;;;;;;5017396;28;20029;-50
2023/04/23 00:58:45;;;;;;;5.43;4.45;;;20.70;61.90;;;;;;5011453;28;20029;-55
2023/04/23 01:01:12;;;;;;;5.32;3.67;;;20.70;61.90;;;;;;5017053;28;20032;-51
2023/04/23 01:03:40;;;;;;;5.47;3.97;;;20.70;61.90;;;;;;5017114;28;20045;-52
2023/04/23 01:06:06;;;;;;;4.93;3.65;;;20.70;61.80;;;;;;5016426;28;20241;-48
2023/04/23 01:08:33;;;;;;;4.40;3.55;;;20.70;61.90;;;;;;5012098;28;20022;-52
2023/04/23 01:11:01;;;;;;;5.20;3.53;;;20.70;61.90;;;;;;5017348;28;20394;-52
2023/04/23 01:13:28;;;;;;;5.20;3.88;;;20.70;61.90;;;;;;5014560;28;20029;-53
2023/04/23 01:15:55;;;;;;;4.13;3.53;;;20.70;61.90;;;;;;5017901;28;20042;-56
2023/04/23 01:18:21;;;;;;;6.30;4.20;;;20.70;61.80;;;;;;5014282;28;20117;-56
2023/04/23 01:20:48;;;;;;;4.97;3.63;;;20.70;61.80;;;;;;5017067;28;20042;-51
2023/04/23 01:23:15;;;;;;;5.30;3.15;;;20.70;61.80;;;;;;5013705;28;20541;-52
2023/04/23 01:25:41;;;;;;;3.95;3.20;;;20.70;61.80;;;;;;5016917;28;20056;-49
2023/04/23 01:28:06;;;;;;;6.55;3.25;;;20.70;61.80;;;;;;5029697;23;20314;-51
2023/04/23 01:30:32;;;;;;;3.80;3.15;;;20.70;61.80;;;;;;5018019;28;20198;-54
2023/04/23 01:32:58;;;;;;;4.45;4.05;;;20.70;61.80;;;;;;5016981;28;20022;-51
2023/04/23 01:35:25;;;;;;;5.53;3.38;;;20.70;61.80;;;;;;5022564;28;20070;-55
2023/04/23 01:37:52;;;;;;;4.85;3.50;;;20.70;61.80;;;;;;5032560;28;20426;-47
2023/04/23 01:40:19;;;;;;;4.13;3.05;;;20.70;61.70;;;;;;5014511;28;20033;-53
2023/04/23 01:42:44;;;;;;;4.68;3.40;;;20.70;61.70;;;;;;5016141;28;20377;-48
2023/04/23 01:45:10;;;;;;;4.93;3.15;;;20.70;61.80;;;;;;5015066;28;20329;-53
2023/04/23 01:47:36;;;;;;;5.18;3.10;;;20.70;61.80;;;;;;5015031;28;20384;-57
2023/04/23 01:50:03;;;;;;;4.25;3.50;;;20.70;61.70;;;;;;5014722;28;20034;-53
2023/04/23 01:52:28;;;;;;;3.75;3.10;;;20.70;61.70;;;;;;5013810;28;20114;-56
2023/04/23 01:54:54;;;;;;;4.97;3.35;;;20.70;61.70;;;;;;5016876;28;20041;-56
2023/04/23 01:57:22;;;;;;;6.22;3.63;;;20.70;61.70;;;;;;5015285;28;20432;-48
2023/04/23 01:59:49;;;;;;;3.92;2.70;;;20.70;61.70;;;;;;5015624;28;20068;-56
2023/04/23 02:02:15;;;;;;;7.38;4.13;;;20.70;61.70;;;;;;5017093;28;20041;-55
2023/04/23 02:04:43;;;;;;;3.47;3.05;;;20.70;61.70;;;;;;5013174;28;20368;-52
2023/04/23 02:07:09;;;;;;;4.53;3.00;;;20.70;61.70;;;;;;5011762;28;20037;-51
2023/04/23 02:09:35;;;;;;;4.85;2.90;;;20.70;61.70;;;;;;5012662;28;20037;-51
2023/04/23 02:12:01;;;;;;;5.07;3.17;;;20.70;61.70;;;;;;5017014;28;20072;-56
2023/04/23 02:14:26;;;;;;;4.40;3.20;;;20.70;61.70;;;;;;5015004;28;20037;-54
2023/04/23 02:16:52;;;;;;;4.38;3.38;;;20.70;61.70;;;;;;5015823;28;20037;-56
2023/04/23 02:19:18;;;;;;;5.90;3.03;;;20.70;61.70;;;;;;5015342;28;20060;-54
2023/04/23 02:21:44;;;;;;;4.65;3.05;;;20.70;61.70;;;;;;5015632;28;20049;-55
2023/04/23 02:24:09;;;;;;;4.20;3.22;;;20.70;61.70;;;;;;5016783;28;20026;-56
2023/04/23 02:26:35;;;;;;;3.55;2.63;;;20.70;61.70;;;;;;5012083;28;20034;-57
2023/04/23 02:29:01;;;;;;;5.88;3.63;;;20.70;61.70;;;;;;5015928;28;20379;-57
2023/04/23 02:31:26;;;;;;;4.03;2.88;;;20.70;61.70;;;;;;5017980;28;20041;-52
2023/04/23 02:33:52;;;;;;;3.72;2.90;;;20.70;61.70;;;;;;5013786;28;20174;-59
2023/04/23 02:36:17;;;;;;;4.13;2.53;;;20.70;61.70;;;;;;5014132;28;20551;-55
2023/04/23 02:38:44;;;;;;;5.28;2.85;;;20.70;61.70;;;;;;5013610;28;20030;-54
2023/04/23 02:41:10;;;;;;;4.68;3.45;;;20.70;61.70;;;;;;5017013;28;20038;-58
2023/04/23 02:43:36;;;;;;;4.00;3.00;;;20.70;61.70;;;;;;5013521;28;20037;-53
2023/04/23 02:46:08;;;;;;;6.63;2.95;;;20.70;61.70;;;;;;5016812;28;20029;-59
2023/04/23 02:48:38;;;;;;;4.18;3.13;;;20.70;61.70;;;;;;5012763;28;20040;-57
2023/04/23 02:51:05;;;;;;;3.83;2.90;;;20.70;61.70;;;;;;5014909;28;20324;-52
2023/04/23 02:53:31;;;;;;;2.67;2.45;;;20.70;61.70;;;;;;5015570;28;20037;-53
2023/04/23 02:55:56;;;;;;;4.22;3.13;;;20.70;61.70;;;;;;5016506;28;20041;-56
2023/04/23 02:58:22;;;;;;;2.85;2.60;;;20.70;61.60;;;;;;5022517;28;20032;-55
2023/04/23 03:00:47;;;;;;;4.13;2.95;;;20.70;61.60;;;;;;5018726;28;20115;-53
2023/04/23 03:03:13;;;;;;;4.30;2.88;;;20.60;61.50;;;;;;5017984;28;20033;-50
2023/04/23 03:05:38;;;;;;;3.90;2.72;;;20.70;61.60;;;;;;5015860;28;20029;-53
2023/04/23 03:08:04;;;;;;;3.58;2.92;;;20.70;61.60;;;;;;5014954;28;20041;-56
2023/04/23 03:10:29;;;;;;;4.15;2.58;;;20.60;61.60;;;;;;5015979;28;20033;-54
2023/04/23 03:12:55;;;;;;;5.72;2.40;;;20.60;61.60;;;;;;5018276;28;20041;-58
2023/04/23 03:15:20;;;;;;;3.47;2.75;;;20.70;61.60;;;;;;5015465;28;20121;-53
2023/04/23 03:17:46;;;;;;;2.97;2.35;;;20.60;61.60;;;;;;5012893;28;20030;-49
2023/04/23 03:20:12;;;;;;;3.17;2.80;;;20.60;61.50;;;;;;5018589;28;20616;-49
2023/04/23 03:22:37;;;;;;;3.80;3.25;;;20.60;61.50;;;;;;5018233;28;20030;-53
2023/04/23 03:25:04;;;;;;;3.72;2.42;;;20.60;61.50;;;;;;5017700;28;20030;-51
2023/04/23 03:27:29;;;;;;;5.53;2.67;;;20.60;61.50;;;;;;5019756;28;20379;-52
2023/04/23 03:29:55;;;;;;;8.27;3.10;;;20.70;61.60;;;;;;5018298;28;20100;-57
2023/04/23 03:32:20;;;;;;;5.07;3.10;;;20.70;61.60;;;;;;5017055;28;20120;-49
2023/04/23 03:34:45;;;;;;;3.80;2.63;;;20.60;61.60;;;;;;5014485;28;20079;-50
2023/04/23 03:37:12;;;;;;;2.72;2.50;;;20.70;61.60;;;;;;5015329;28;20030;-55
2023/04/23 03:39:37;;;;;;;2.72;2.33;;;20.60;61.50;;;;;;5017285;28;20116;-52
2023/04/23 03:42:04;;;;;;;3.55;2.30;;;20.60;61.50;;;;;;5018344;28;20450;-58
2023/04/23 03:44:29;;;;;;;4.53;2.42;;;20.70;61.60;;;;;;5015014;28;20030;-55
2023/04/23 03:46:55;;;;;;;6.22;3.30;;;20.60;61.50;;;;;;5021502;28;20038;-60
2023/04/23 03:49:21;;;;;;;3.97;2.45;;;20.60;61.50;;;;;;5014774;28;20297;-49
2023/04/23 03:51:47;;;;;;;2.20;2.00;;;20.60;61.50;;;;;;5017266;28;20450;-54
2023/04/23 03:54:12;;;;;;;3.40;2.53;;;20.60;61.50;;;;;;5016001;28;20083;-51
2023/04/23 03:56:38;;;;;;;2.63;2.20;;;20.60;61.50;;;;;;5016781;28;20075;-53
2023/04/23 03:59:03;;;;;;;3.05;2.22;;;20.60;61.50;;;;;;5018017;28;20076;-51
2023/04/23 04:01:31;;;;;;;2.60;2.28;;;20.60;61.50;;;;;;5017407;28;20030;-53
2023/04/23 04:03:56;;;;;;;2.38;2.17;;;20.60;61.40;;;;;;5015009;28;20048;-54
2023/04/23 04:06:22;;;;;;;2.92;2.35;;;20.60;61.50;;;;;;5018270;28;20029;-53
2023/04/23 04:08:47;;;;;;;3.17;2.70;;;20.60;61.40;;;;;;5018174;28;20136;-52
2023/04/23 04:11:13;;;;;;;2.90;2.30;;;20.60;61.50;;;;;;5016496;28;20120;-51
2023/04/23 04:13:38;;;;;;;3.20;2.30;;;20.60;61.40;;;;;;5015365;28;20025;-51
2023/04/23 04:16:04;;;;;;;3.10;2.60;;;20.60;61.50;;;;;;5018287;28;20113;-59
2023/04/23 04:18:30;;;;;;;2.75;2.40;;;20.60;61.40;;;;;;5016671;28;20754;-53
2023/04/23 04:20:55;;;;;;;2.60;2.40;;;20.60;61.40;;;;;;5018424;28;20033;-53
2023/04/23 04:23:21;;;;;;;3.00;2.50;;;20.60;61.50;;;;;;5014437;28;20033;-56
2023/04/23 04:25:46;;;;;;;2.78;2.15;;;20.60;61.40;;;;;;5016980;28;20063;-60
2023/04/23 04:28:13;;;;;;;2.33;1.98;;;20.60;61.40;;;;;;5017676;28;20056;-51
2023/04/23 04:30:39;;;;;;;2.33;2.03;;;20.60;61.50;;;;;;5015467;28;20104;-53
2023/04/23 04:33:04;;;;;;;3.28;2.42;;;20.60;61.40;;;;;;5019169;28;20411;-57
2023/04/23 04:35:30;;;;;;;5.00;2.75;;;20.60;61.40;;;;;;5019893;28;20026;-56
2023/04/23 04:37:55;;;;;;;2.90;2.20;;;20.60;61.50;;;;;;5017753;28;20040;-54
2023/04/23 04:40:21;;;;;;;3.63;2.55;;;20.70;61.50;;;;;;5014835;28;20022;-57
2023/04/23 04:42:46;;;;;;;3.22;2.53;;;20.60;61.40;;;;;;5050638;28;20029;-52
2023/04/23 04:45:12;;;;;;;2.60;2.17;;;20.60;61.40;;;;;;5017828;28;20116;-50
2023/04/23 04:47:37;;;;;;;4.00;2.15;;;20.60;61.40;;;;;;5014113;28;20033;-56
2023/04/23 04:50:04;;;;;;;2.50;2.22;;;20.60;61.40;;;;;;5015038;28;20076;-51
2023/04/23 04:52:30;;;;;;;2.47;2.00;;;20.60;61.40;;;;;;5012486;28;20040;-54
2023/04/23 04:54:55;;;;;;;3.45;2.40;;;20.60;61.40;;;;;;5013655;28;20029;-58
2023/04/23 04:57:21;;;;;;;3.08;2.20;;;20.60;61.40;;;;;;5019206;28;20069;-53
2023/04/23 04:59:48;;;;;;;2.88;2.47;;;20.60;61.40;;;;;;5016264;28;20037;-55
2023/04/23 05:02:13;;;;;;;2.20;2.00;;;20.60;61.40;;;;;;5018666;28;20338;-54
2023/04/23 05:04:39;;;;;;;6.35;2.53;;;20.70;61.50;;;;;;5016856;28;20514;-55
2023/04/23 05:07:04;;;;;;;3.40;1.90;;;20.70;61.40;;;;;;5017756;28;20495;-52
2023/04/23 05:09:30;;;;;;;2.40;2.20;;;20.70;61.40;;;;;;5013724;28;20038;-54
2023/04/23 05:11:56;;;;;;;2.80;2.40;;;20.70;61.40;;;;;;5018522;28;20049;-49
2023/04/23 05:14:22;;;;;;;2.50;1.77;;;20.70;61.40;;;;;;5014013;28;20034;-59
2023/04/23 05:16:47;;;;;;;7.32;2.53;;;20.60;61.30;;;;;;5015054;28;20030;-56
2023/04/23 05:19:13;;;;;;;3.75;2.10;;;20.70;61.40;;;;;;5015535;28;20037;-49
2023/04/23 05:21:40;;;;;;;3.70;3.08;;;20.70;61.40;;;;;;5015309;28;20045;-52
2023/04/23 05:24:05;;;;;;;4.57;2.10;;;20.70;61.40;;;;;;5014263;28;20265;-51
2023/04/23 05:26:31;;;;;;;2.90;2.45;;;20.70;61.40;;;;;;5018516;28;20475;-56
2023/04/23 05:28:56;;;;;;;4.80;2.40;;;20.70;61.40;;;;;;5017045;28;20071;-52
2023/04/23 05:31:22;;;;;;;2.40;1.95;;;20.70;61.40;;;;;;5016072;28;20036;-50
2023/04/23 05:33:47;;;;;;;3.15;2.20;;;20.70;61.40;;;;;;5016583;28;20030;-53
2023/04/23 05:36:13;;;;;;;2.80;2.00;;;20.70;61.30;;;;;;5017984;28;20259;-52
2023/04/23 05:38:38;;;;;;;2.15;1.95;;;20.70;61.40;;;;;;5015205;28;20107;-50
2023/04/23 05:41:04;;;;;;;2.53;2.33;;;20.70;61.40;;;;;;5018132;28;20124;-51
2023/04/23 05:43:29;;;;;;;2.20;2.00;;;20.70;61.40;;;;;;5017331;28;20495;-54
2023/04/23 05:45:55;;;;;;;2.70;2.05;;;20.70;61.40;;;;;;5014813;28;20033;-54
2023/04/23 05:48:20;;;;;;;2.65;2.00;;;20.70;61.40;;;;;;5012859;28;20029;-52
2023/04/23 05:50:48;;;;;;;2.25;2.05;;;20.70;61.40;;;;;;5013768;28;20594;-54
2023/04/23 05:53:13;;;;;;;2.10;1.90;;;20.70;61.40;;;;;;5012295;28;20125;-55
2023/04/23 05:55:39;;;;;;;2.30;1.90;;;20.70;61.50;;;;;;5017076;28;20531;-59
2023/04/23 05:58:05;;;;;;;2.78;1.95;;;20.70;61.40;;;;;;5015910;28;20104;-51
2023/04/23 06:00:31;;;;;;;2.22;1.83;;;20.70;61.40;;;;;;5017500;28;20125;-52
2023/04/23 06:02:57;;;;;;;2.10;1.90;;;20.70;61.40;;;;;;5015474;28;20041;-57
2023/04/23 06:05:22;;;;;;;2.88;2.10;;;20.70;61.40;;;;;;5017200;28;20402;-52
2023/04/23 06:07:48;;;;;;;2.50;1.80;;;20.70;61.40;;;;;;5046190;28;20061;-52
2023/04/23 06:10:13;;;;;;;2.40;1.98;;;20.60;61.40;;;;;;5018147;28;20467;-49
2023/04/23 06:12:40;;;;;;;3.35;2.40;;;20.70;61.40;;;;;;5014560;28;20037;-54
2023/04/23 06:15:07;;;;;;;6.22;2.58;;;20.70;61.40;;;;;;5014229;28;20038;-52
2023/04/23 06:17:33;;;;;;;4.55;2.03;;;20.70;61.50;;;;;;5014583;28;20033;-50
2023/04/23 06:19:59;;;;;;;4.90;2.30;;;20.60;61.50;;;;;;5011891;28;20030;-50
2023/04/23 06:22:24;;;;;;;6.80;2.17;;;20.70;61.60;;;;;;5015389;28;20109;-50
2023/04/23 06:24:50;;;;;;;4.38;2.70;;;20.70;62.00;;;;;;5017321;28;20030;-59
2023/04/23 06:27:16;;;;;;;5.57;2.55;;;20.70;62.20;;;;;;5016623;28;20529;-53
2023/04/23 06:29:41;;;;;;;5.47;2.58;;;20.70;62.30;;;;;;5019445;28;20481;-54
2023/04/23 06:32:07;;;;;;;7.72;2.50;;;20.70;62.50;;;;;;5020109;28;20092;-57
2023/04/23 06:34:32;;;;;;;4.47;2.35;;;20.70;62.50;;;;;;5018006;28;20038;-60
2023/04/23 06:36:58;;;;;;;3.60;2.00;;;20.70;62.60;;;;;;5017792;28;20029;-54
2023/04/23 06:39:23;;;;;;;5.07;2.10;;;20.70;62.60;;;;;;5019501;28;20064;-51
2023/04/23 06:41:49;;;;;;;8.32;2.72;;;20.70;62.50;;;;;;5017889;28;20029;-54
2023/04/23 06:44:14;;;;;;;6.32;2.42;;;20.70;62.50;;;;;;5017053;28;20038;-59
2023/04/23 06:46:40;;;;;;;10.25;2.90;;;20.70;62.60;;;;;;5017056;28;20022;-51
2023/04/23 06:49:05;;;;;;;11.13;3.25;;;20.70;62.50;;;;;;5015123;28;20394;-54
2023/04/23 06:51:31;;;;;;;6.60;2.60;;;20.70;62.50;;;;;;5012884;28;20037;-57
2023/04/23 06:53:57;;;;;;;9.80;2.65;;;20.70;62.30;;;;;;5019086;28;20022;-52
2023/04/23 06:56:23;;;;;;;7.00;3.17;;;20.70;62.20;;;;;;5022754;28;20037;-53
2023/04/23 06:58:48;;;;;;;3.90;2.67;;;20.70;62.10;;;;;;5017355;28;20458;-52
2023/04/23 07:01:14;;;;;;;8.30;2.70;;;20.70;62.10;;;;;;5042190;28;20191;-55
2023/04/23 07:03:43;;;;;;;8.57;3.40;;;20.70;62.00;;;;;;5017658;28;20048;-55
2023/04/23 07:06:09;;;;;;;7.47;3.53;;;20.70;62.00;;;;;;5019256;28;20406;-53
2023/04/23 07:08:34;;;;;;;24.73;13.95;;;20.70;62.00;;;;;;5017397;28;20029;-48
2023/04/23 07:11:01;;;;;;;18.77;13.15;;;20.70;62.40;;;;;;5017231;28;20029;-52
2023/04/23 07:13:26;;;;;;;18.75;12.25;;;20.80;63.00;;;;;;5015601;28;20060;-54
2023/04/23 07:15:52;;;;;;;16.52;12.00;;;20.70;63.00;;;;;;5034620;28;20049;-56
2023/04/23 07:18:17;;;;;;;20.77;12.55;;;20.80;63.10;;;;;;5015256;28;20033;-54
2023/04/23 07:20:43;;;;;;;18.05;10.88;;;20.80;63.80;;;;;;5010110;28;20068;-54
2023/04/23 07:23:09;;;;;;;16.15;10.07;;;20.80;63.10;;;;;;5021163;28;20049;-56
2023/04/23 07:25:35;;;;;;;18.20;10.60;;;20.80;63.10;;;;;;5019109;28;20026;-54
2023/04/23 07:28:00;;;;;;;15.18;10.48;;;20.80;63.00;;;;;;5018852;28;20046;-53
2023/04/23 07:30:26;;;;;;;16.08;9.93;;;20.80;62.90;;;;;;5020258;28;20129;-53
2023/04/23 07:32:53;;;;;;;13.90;9.35;;;20.80;63.00;;;;;;5017690;28;20045;-58
2023/04/23 07:35:18;;;;;;;15.07;9.45;;;20.80;63.00;;;;;;5018818;28;20440;-52
2023/04/23 07:37:44;;;;;;;14.32;9.80;;;20.80;63.10;;;;;;5049036;28;20113;-54
2023/04/23 07:40:10;;;;;;;22.75;13.40;;;20.80;63.20;;;;;;5015420;28;20343;-55
2023/04/23 07:42:35;;;;;;;32.13;14.50;;;20.80;63.00;;;;;;5016674;28;20029;-52
2023/04/23 07:45:01;;;;;;;27.45;13.18;;;20.80;63.00;;;;;;5015285;28;20053;-58
2023/04/23 07:47:26;;;;;;;28.25;14.00;;;20.80;62.90;;;;;;5015412;28;20140;-57
2023/04/23 07:49:53;;;;;;;24.70;13.02;;;20.80;63.00;;;;;;5010984;28;20034;-52
2023/04/23 07:52:18;;;;;;;27.65;14.43;;;20.80;63.00;;;;;;5020102;28;20030;-54
2023/04/23 07:54:45;;;;;;;23.55;12.25;;;20.80;62.90;;;;;;5015742;28;20037;-52
2023/04/23 07:57:11;;;;;;;22.40;11.57;;;20.90;62.80;;;;;;5019151;28;20361;-52
2023/04/23 07:59:38;;;;;;;18.00;10.05;;;20.80;62.80;;;;;;5016381;28;20049;-56
2023/04/23 08:02:04;;;;;;;16.35;10.35;;;20.80;62.80;;;;;;5015307;28;20037;-54
2023/04/23 08:04:29;;;;;;;15.07;9.93;;;20.80;62.70;;;;;;5017219;28;20056;-53
2023/04/23 08:06:55;;;;;;;14.95;9.57;;;20.80;62.70;;;;;;5017367;28;20475;-58
2023/04/23 08:09:20;;;;;;;13.18;8.68;;;20.80;62.60;;;;;;5013193;28;20064;-51
2023/04/23 08:11:47;;;;;;;14.63;8.45;;;20.80;62.60;;;;;;5013640;28;20124;-57
2023/04/23 08:14:12;;;;;;;16.88;8.30;;;20.80;62.60;;;;;;5012742;28;20025;-53
2023/04/23 08:16:38;;;;;;;17.65;8.50;;;20.80;62.50;;;;;;5014903;28;20029;-52
2023/04/23 08:19:04;;;;;;;25.00;8.85;;;20.80;62.40;;;;;;5014357;28;20200;-52
2023/04/23 08:21:31;;;;;;;13.55;7.15;;;20.80;62.40;;;;;;5015156;28;20056;-51
2023/04/23 08:23:56;;;;;;;14.80;7.38;;;20.80;62.40;;;;;;5017475;28;20029;-52
2023/04/23 08:26:22;;;;;;;12.43;6.95;;;20.80;62.40;;;;;;5016764;28;20372;-51
2023/04/23 08:28:48;;;;;;;14.25;6.68;;;20.80;62.50;;;;;;5015909;28;20030;-57
2023/04/23 08:31:13;;;;;;;13.40;6.93;;;20.80;62.60;;;;;;5016950;28;20095;-56
2023/04/23 08:33:39;;;;;;;13.27;6.97;;;20.80;62.80;;;;;;5016777;28;20109;-51
2023/04/23 08:36:05;;;;;;;9.85;6.22;;;20.80;62.80;;;;;;5015753;28;20613;-49
2023/04/23 08:38:30;;;;;;;12.55;6.00;;;20.80;62.80;;;;;;5014536;28;20116;-52
2023/04/23 08:40:58;;;;;;;13.48;6.88;;;20.80;62.70;;;;;;5014184;28;20034;-55
2023/04/23 08:43:32;;;;;;;8.15;5.43;;;20.80;62.60;;;;;;5010842;28;20029;-55
2023/04/23 08:46:03;;;;;;;9.15;5.32;;;20.80;62.60;;;;;;5011120;28;20523;-58
2023/04/23 08:48:29;;;;;;;7.93;4.95;;;20.80;62.40;;;;;;5013083;28;20509;-53
2023/04/23 08:50:56;;;;;;;8.88;4.28;;;20.80;62.20;;;;;;5017390;28;20312;-51
2023/04/23 08:53:26;;;;;;;8.32;4.65;;;20.80;62.10;;;;;;5019255;28;20072;-50
2023/04/23 08:55:53;;;;;;;9.85;4.78;;;20.80;62.00;;;;;;5016671;28;20471;-58
2023/04/23 08:58:20;;;;;;;5.90;3.55;;;20.80;61.90;;;;;;5016784;28;20041;-57
2023/04/23 09:00:47;;;;;;;8.55;3.78;;;20.80;61.80;;;;;;5012971;28;20076;-53
2023/04/23 09:03:15;;;;;;;8.80;3.90;;;20.80;61.70;;;;;;5015208;28;20029;-54
2023/04/23 09:05:41;;;;;;;7.57;4.43;;;20.80;61.60;;;;;;5014632;28;20041;-54
2023/04/23 09:08:07;;;;;;;6.18;3.38;;;20.80;61.70;;;;;;5013439;28;20026;-56
2023/04/23 09:10:36;;;;;;;5.65;3.20;;;20.80;61.60;;;;;;5014175;28;20045;-52
2023/04/23 09:13:02;;;;;;;4.07;2.75;;;20.80;61.60;;;;;;5012987;28;20056;-51
2023/04/23 09:15:27;;;;;;;5.63;2.58;;;20.80;61.60;;;;;;5013469;28;20108;-51
2023/04/23 09:17:53;;;;;;;5.82;2.92;;;20.80;61.50;;;;;;5008494;28;20507;-52
2023/04/23 09:20:18;;;;;;;4.40;2.53;;;20.70;61.50;;;;;;5018810;28;20029;-50
2023/04/23 09:22:49;;;;;;;3.00;1.92;;;20.70;61.50;;;;;;5016610;28;20485;-49
2023/04/23 09:25:17;;;;;;;5.60;2.10;;;20.80;61.50;;;;;;5016526;28;20049;-55
2023/04/23 09:27:43;;;;;;;6.10;2.72;;;20.80;61.60;;;;;;5014862;28;20038;-53
2023/04/23 09:30:10;;;;;;;5.88;2.60;;;20.70;61.50;;;;;;4989577;28;20025;-53
2023/04/23 09:32:38;;;;;;;3.25;2.20;;;20.70;61.60;;;;;;5015843;28;20545;-52
2023/04/23 09:35:06;;;;;;;4.63;2.35;;;20.70;61.70;;;;;;5014592;28;20037;-56
2023/04/23 09:37:32;;;;;;;4.80;2.35;;;20.70;61.80;;;;;;5012067;28;20105;-56
2023/04/23 09:40:03;;;;;;;4.85;1.88;;;20.70;61.90;;;;;;5011210;28;20034;-59
2023/04/23 09:42:29;;;;;;;2.60;2.00;;;20.80;61.90;;;;;;5011485;28;20040;-55
2023/04/23 09:44:57;;;;;;;4.22;1.90;;;20.70;61.90;;;;;;5014435;28;20037;-52
2023/04/23 09:47:22;;;;;;;2.10;1.45;;;20.80;61.90;;;;;;5010191;28;20033;-55
2023/04/23 09:49:49;;;;;;;3.35;1.80;;;20.80;62.50;;;;;;5016843;28;20029;-57
2023/04/23 09:52:15;;;;;;;7.20;2.03;;;20.80;61.80;;;;;;5016507;28;20112;-56
2023/04/23 09:54:41;;;;;;;3.00;1.80;;;20.80;61.80;;;;;;5016444;28;20120;-49
2023/04/23 09:57:07;;;;;;;4.78;1.27;;;20.80;61.70;;;;;;5014186;28;20041;-54
2023/04/23 09:59:35;;;;;;;2.13;1.48;;;20.80;61.70;;;;;;5013090;28;20026;-53
2023/04/23 10:02:07;;;;;;;4.22;2.20;;;20.80;61.60;;;;;;5013990;28;20033;-57
2023/04/23 10:04:33;;;;;;;4.10;1.63;;;20.80;61.50;;;;;;5012826;28;20032;-57
2023/04/23 10:07:02;;;;;;;2.40;1.50;;;20.80;61.50;;;;;;5010453;28;20034;-54
2023/04/23 10:09:28;;;;;;;2.75;1.60;;;20.80;61.40;;;;;;5007450;28;20061;-49
2023/04/23 10:11:53;;;;;;;2.97;1.73;;;20.80;61.90;;;;;;5011063;28;20049;-53
2023/04/23 10:14:22;;;;;;;6.22;1.58;;;20.80;61.30;;;;;;5017971;28;20197;-52
2023/04/23 10:16:59;;;;;;;9.80;1.95;;;20.80;61.40;;;;;;5008750;28;20034;-54
2023/04/23 10:20:15;;;;;;;3.55;1.58;;;20.90;61.50;;;;;;5017011;28;20204;-55
2023/04/23 10:22:43;;;;;;;5.32;1.40;;;20.90;61.40;;;;;;5023708;28;20032;-56
2023/04/23 10:25:10;;;;;;;2.67;1.60;;;20.90;61.30;;;;;;5015629;28;20034;-51
2023/04/23 10:27:41;;;;;;;3.00;1.58;;;21.00;61.30;;;;;;5015050;28;20037;-49
2023/04/23 10:30:08;;;;;;;2.08;1.38;;;21.00;61.30;;;;;;5014389;28;20076;-52
2023/04/23 10:32:34;;;;;;;7.57;1.50;;;21.00;61.30;;;;;;5013276;28;20055;-55
2023/04/23 10:35:00;;;;;;;4.03;1.00;;;21.00;61.30;;;;;;5010653;28;20034;-53
2023/04/23 10:37:27;;;;;;;2.88;1.23;;;21.00;61.30;;;;;;5010722;28;20041;-53
2023/04/23 10:39:54;;;;;;;5.07;1.58;;;21.10;61.40;;;;;;5006979;28;20034;-56
2023/04/23 10:42:21;;;;;;;4.20;1.40;;;21.10;61.40;;;;;;5014518;28;20040;-50
2023/04/23 10:44:47;;;;;;;3.78;1.60;;;21.10;61.50;;;;;;5007956;28;20577;-56
2023/04/23 10:53:56;;;;;;;1.65;1.30;;;21.10;62.00;;;;;;5012934;28;20115;-53
2023/04/23 10:56:22;;;;;;;1.73;0.95;;;21.20;62.00;;;;;;5016966;28;20530;-57
2023/04/23 10:58:52;;;;;;;1.73;1.02;;;21.10;61.90;;;;;;5012508;28;20052;-54
2023/04/23 11:01:18;;;;;;;4.75;1.60;;;21.10;61.80;;;;;;5013977;28;20199;-56
2023/04/23 11:07:09;;;;;;;1.50;1.20;;;21.10;61.70;;;;;;5007420;28;20518;-49
2023/04/23 11:13:17;;;;;;;2.42;1.27;;;21.20;61.50;;;;;;5025707;28;20295;-57
2023/04/23 11:15:43;;;;;;;7.00;1.30;;;21.10;61.50;;;;;;5001450;28;20462;-53
2023/04/23 11:18:10;;;;;;;5.88;1.25;;;21.20;61.40;;;;;;5018621;28;20037;-52
2023/04/23 11:20:36;;;;;;;3.55;1.25;;;21.10;61.20;;;;;;5013358;28;20045;-55
2023/04/23 11:23:06;;;;;;;2.67;1.10;;;21.10;61.30;;;;;;5015499;28;20029;-50
2023/04/23 11:25:31;;;;;;;4.10;1.27;;;21.10;61.30;;;;;;5035726;22;20070;-50
2023/04/23 11:27:57;;;;;;;4.72;1.30;;;21.10;61.30;;;;;;5021629;28;20529;-51
2023/04/23 11:30:28;;;;;;;2.60;1.38;;;21.20;61.50;;;;;;5020784;28;20033;-52
2023/04/23 11:32:55;;;;;;;2.95;1.33;;;21.20;61.60;;;;;;5020659;28;20041;-56
2023/04/23 11:35:23;;;;;;;14.13;1.63;;;21.20;61.50;;;;;;5018132;28;20064;-51
2023/04/23 11:38:42;;;;;;;2.50;1.10;;;21.20;61.60;;;;;;5018193;28;20121;-53
2023/04/23 11:41:07;;;;;;;3.38;1.50;;;21.20;62.00;;;;;;5016560;28;20079;-51
2023/04/23 11:43:35;;;;;;;5.47;1.35;;;21.20;62.50;;;;;;5017114;28;20463;-53
2023/04/23 11:46:00;;;;;;;1.75;0.88;;;21.30;62.40;;;;;;5010837;28;20041;-53
2023/04/23 11:48:26;;;;;;;3.67;1.50;;;21.30;62.20;;;;;;5013010;28;20032;-51
2023/04/23 11:50:51;;;;;;;2.28;1.10;;;21.20;62.10;;;;;;5012341;28;20095;-53
2023/04/23 11:53:17;;;;;;;4.40;1.10;;;21.20;62.20;;;;;;5016074;28;20307;-52
2023/04/23 11:55:44;;;;;;;1.83;1.00;;;21.30;62.10;;;;;;5014399;28;20034;-55
2023/04/23 11:58:10;;;;;;;2.60;1.05;;;21.30;62.10;;;;;;5018648;28;20022;-58
2023/04/23 12:00:35;;;;;;;2.75;1.20;;;21.30;62.20;;;;;;5018551;28;20036;-50
2023/04/23 12:03:04;;;;;;;2.67;1.40;;;21.30;62.50;;;;;;5020643;28;20049;-57
2023/04/23 12:05:37;;;;;;;8.90;1.80;;;21.30;63.60;;;;;;5018806;28;20124;-50
2023/04/23 12:11:25;;;;;;;4.68;1.13;;;21.30;63.10;;;;;;4996774;28;20111;-55
2023/04/23 12:13:50;;;;;;;6.47;1.88;;;21.30;62.90;;;;;;5016028;28;20482;-52
2023/04/23 12:16:16;;;;;;;3.33;1.27;;;21.30;63.10;;;;;;5008543;28;20453;-57
2023/04/23 12:18:43;;;;;;;5.70;1.70;;;21.30;63.20;;;;;;5010136;28;20511;-55
2023/04/23 12:21:11;;;;;;;3.33;1.30;;;21.30;63.40;;;;;;5012763;28;20087;-56
2023/04/23 12:23:41;;;;;;;4.47;1.65;;;21.40;63.70;;;;;;5020958;28;20072;-55
2023/04/23 12:26:11;;;;;;;2.92;1.55;;;21.30;63.60;;;;;;5010646;28;20405;-54
2023/04/23 12:28:50;;;;;;;3.80;1.40;;;21.30;63.40;;;;;;5005332;28;20057;-51
2023/04/23 12:31:20;;;;;;;3.20;1.13;;;21.30;63.40;;;;;;5012220;28;20124;-51
2023/04/23 12:33:46;;;;;;;5.20;1.27;;;21.30;63.20;;;;;;5038295;28;20033;-56
2023/04/23 12:36:17;;;;;;;2.15;1.10;;;21.30;63.10;;;;;;5011874;28;20136;-57
2023/04/23 12:38:43;;;;;;;2.78;1.13;;;21.30;63.00;;;;;;5019039;28;20373;-53
2023/04/23 12:41:09;;;;;;;1.92;1.20;;;21.30;62.80;;;;;;5010816;28;20049;-55
2023/04/23 12:43:35;;;;;;;3.00;1.35;;;21.30;62.70;;;;;;5012160;28;20053;-52
2023/04/23 12:46:01;;;;;;;2.00;1.20;;;21.30;62.70;;;;;;5008675;28;20434;-56
2023/04/23 12:48:26;;;;;;;4.75;1.73;;;21.30;62.50;;;;;;5010817;28;20124;-52
2023/04/23 12:50:52;;;;;;;4.35;1.00;;;21.30;62.40;;;;;;5011082;28;20499;-56
2023/04/23 12:53:18;;;;;;;3.17;1.13;;;21.30;62.70;;;;;;5014566;28;20104;-52
2023/04/23 12:55:44;;;;;;;3.17;1.40;;;21.30;63.00;;;;;;5016129;28;20029;-54
2023/04/23 13:04:59;;;;;;;4.63;1.70;;;21.30;62.80;;;;;;5005655;28;20101;-55